Алыкель

Карта отелей и гостиниц, располагающихся рядом с аэропортом Алыкель :

Алыкель
Норильск
Красноярский край 69° 18' 39.6612" N, 87° 19' 55.0812" E
Код аэродрома ИКАО
UOOO
Код аэродрома RU
УООО
Координаты
N69.31102° E087.33197°
Превышение над уровнем моря
181
Основная полоса
01/19
Курс магнитный
014/194
Длина основной ВПП
3435
Ширина основной ВПП
45
Покрытие основной ВПП
Твёрдое
Освещение ВПП
Постоянное
Тип: 
Аэродром
Принадлежность: 
ГА
Статус: 
Действующий
Сайт: 
http://airport-norilsk.ru/
E-mail аэродрома: 
airport@airport-norilsk.ru
Страна: 
Россия
Регион: 
Красноярский край
Город: 
Норильск
Дополнительная информация: 
Эксплуатант: ООО «Аэропорт Норильск». Совместного базирования. Приравнен к условиям "Международного"(пересечение воздушных магистралей: транссибирской и трансатлантической). Грузонапряженность ВПП до 280 тонн. PCN 47/R/A/X/T. Военный индекс: XOOO / ЬООО. Расположен на Севере Красноярского края, на юге Таймырского полуострова в 52 км от промышленного и индустриального центра г. Норильск с его градообразующим стратегически важным предприятием ПАО «ГМК «Норильский Никель».
Схемы аэропортов: 
Погода: 

Авиационная погода в аэропорту Алыкель

Регион: 
Погода METAR: 
UOOO 281200Z 05003MPS CAVOK 02/M04 Q1025 R01/CLRD60 NOSIG RMK QFE754/1005
Время наблюдения
2021-09-28T12:00:00Z
Температура C
2.0
Точка росы
-4.0
Направление ветра
50
Скорость ветра (узлы)
6
Метео видимость
6.21
Явления погоды
Условия полета
VFR
Аэропорт подробнее: 

Найти трансфер

С помощью этой формы Вы можете найти трансфер из аэропорта Алыкель в город, аэропорт или вокзал:

Карта места

Javascript is required to view this map.

Погода в аэропортах:

Авиационная погода в Кокшетау

Регион: 
Погода METAR: 
UACK 281000Z 09011MPS 7000 -RA OVC007 03/02 Q1010 R02/250250 NOSIG RMK QFE734/0979
Время наблюдения
2021-09-28T10:00:00Z
Температура C
3.0
Точка росы
2.0
Направление ветра
90
Скорость ветра (узлы)
21
Метео видимость
4.35
Явления погоды
-RA
Условия полета
IFR
Аэропорт подробнее: 

Авиационная погода в аэропорту Сокол

Регион: 
Погода METAR: 
UHMM 281200Z 07002MPS 9999 -SHRA OVC024CB 05/03 Q1005 RMK QFE739 R28/10003MPS
Время наблюдения
2021-09-28T12:00:00Z
Температура C
5.0
Точка росы
3.0
Направление ветра
70
Скорость ветра (узлы)
4
Метео видимость
6.21
Явления погоды
-SHRA
Условия полета
MVFR
Аэропорт подробнее: 

Авиационная погода в Магнитогорске

Погода METAR: 
USCM 281200Z 03010MPS 4500 -SHRA BR OVC010CB 02/02 Q1016 R36/290055 TEMPO 02015MPS 1200 SHSNRA BR VV004 RMK QFE724
Время наблюдения
2021-09-28T12:00:00Z
Температура C
2.0
Точка росы
2.0
Направление ветра
30
Скорость ветра (узлы)
19
Метео видимость
2.8
Явления погоды
-SHRA BR
Условия полета
IFR
Аэропорт подробнее: 

Авиационная погода в Йоэнсуу

Регион: 
Погода METAR: 
EFJO 281150Z AUTO 15006KT 130V200 0900 0650 R28/1400U BCFG OVC001 06/06 Q1034
Время наблюдения
2021-09-28T11:50:00Z
Температура C
6.0
Точка росы
6.0
Направление ветра
150
Скорость ветра (узлы)
6
Метео видимость
0.56
Явления погоды
BCFG
Условия полета
LIFR